createdAt,value
2022-08-21T00:51:57.026Z,3.03
2022-08-21T00:57:38.758Z,2.73
2022-08-21T01:15:17.255Z,1.93
2022-08-21T05:03:40.802Z,2.83
2022-08-21T05:08:45.897Z,2.57
2022-08-21T05:13:49.782Z,2.47
2022-08-21T05:18:59.990Z,2.37
2022-08-21T05:24:41.092Z,2.10
2022-08-21T05:29:52.028Z,2.20
2022-08-21T05:34:58.000Z,2.43
2022-08-21T05:40:21.486Z,1.87
2022-08-21T05:45:43.034Z,1.90
2022-08-21T05:50:56.476Z,1.70
2022-08-21T05:56:00.407Z,2.20
2022-08-21T06:01:05.537Z,1.90
2022-08-21T06:06:11.130Z,2.10
2022-08-21T06:11:14.685Z,2.00
2022-08-21T06:16:19.436Z,1.60
2022-08-21T06:21:24.421Z,1.63
2022-08-21T06:26:33.239Z,1.70
2022-08-21T06:31:36.926Z,1.43
2022-08-21T06:36:43.217Z,2.00
2022-08-21T06:41:52.919Z,1.70
2022-08-21T06:46:56.796Z,1.50
2022-08-21T06:52:01.878Z,1.60
2022-08-21T06:57:52.759Z,1.60
2022-08-21T07:02:57.123Z,1.50
2022-08-21T07:08:17.844Z,1.43
2022-08-21T07:13:21.709Z,1.27
2022-08-21T07:18:25.162Z,1.60
2022-08-21T07:23:32.987Z,1.37
2022-08-21T07:28:36.839Z,1.63
2022-08-21T07:33:40.431Z,1.80
2022-08-21T07:38:45.347Z,1.83
2022-08-21T07:43:49.019Z,1.50
2022-08-21T07:48:56.992Z,1.80
2022-08-21T07:54:03.001Z,1.93
2022-08-21T07:59:06.429Z,1.53
2022-08-21T08:04:09.937Z,1.60
2022-08-21T08:09:14.804Z,1.60
2022-08-21T08:14:18.336Z,1.60
2022-08-21T08:19:21.781Z,1.60
2022-08-21T08:24:26.620Z,1.50
2022-08-21T08:29:30.911Z,1.60
2022-08-21T08:34:34.371Z,1.63
2022-08-21T08:39:39.755Z,1.40
2022-08-21T08:44:43.712Z,1.27
2022-08-21T08:49:57.122Z,1.50
2022-08-21T08:55:07.128Z,1.40
2022-08-21T09:00:14.409Z,1.50
2022-08-21T09:05:24.814Z,1.33
2022-08-21T09:10:48.287Z,1.30
2022-08-21T09:16:02.271Z,1.43
2022-08-21T09:21:14.785Z,8.53
2022-08-21T09:26:21.864Z,2.30
2022-08-21T09:31:27.481Z,1.40
2022-08-21T09:36:38.270Z,1.50
2022-08-21T09:41:43.504Z,1.13
2022-08-21T09:46:53.761Z,1.30
2022-08-21T09:51:58.735Z,1.20
2022-08-21T09:57:33.286Z,1.00
2022-08-21T10:02:37.891Z,1.27
2022-08-21T10:07:41.353Z,1.00
2022-08-21T10:12:55.583Z,0.90
2022-08-21T10:18:08.341Z,1.10
2022-08-21T10:23:29.595Z,0.93
2022-08-21T10:28:40.070Z,1.20
2022-08-21T10:33:55.671Z,1.00
2022-08-21T10:39:35.786Z,1.00
2022-08-21T10:44:42.646Z,1.10
2022-08-21T10:49:52.260Z,1.33
2022-08-21T10:55:02.266Z,1.00
2022-08-21T11:00:12.479Z,1.10
2022-08-21T11:05:21.370Z,0.90
2022-08-21T11:10:28.144Z,1.00
2022-08-21T11:15:43.674Z,1.70
2022-08-21T11:21:03.813Z,1.50
2022-08-21T11:26:13.626Z,1.00
2022-08-21T11:31:36.333Z,0.70
2022-08-21T11:36:47.400Z,0.82
2022-08-21T11:41:59.139Z,1.00
2022-08-21T11:47:11.777Z,0.80
2022-08-21T11:52:21.736Z,0.95
2022-08-21T11:57:31.252Z,0.80
2022-08-21T12:02:38.338Z,1.00
2022-08-21T12:07:45.418Z,0.80
2022-08-21T12:12:49.051Z,0.90
2022-08-21T12:18:00.893Z,0.82
2022-08-21T12:23:18.417Z,0.90
2022-08-21T12:28:28.601Z,1.10
2022-08-21T12:33:36.144Z,1.10
2022-08-21T12:38:48.369Z,0.80
2022-08-21T12:43:59.188Z,1.08
2022-08-21T12:49:16.168Z,1.05
2022-08-21T12:54:27.709Z,1.10
2022-08-21T12:59:34.020Z,1.00
2022-08-21T13:04:42.453Z,1.30
2022-08-21T13:09:50.764Z,1.30
2022-08-21T13:14:58.187Z,1.00
2022-08-21T13:20:06.555Z,1.20
2022-08-21T13:25:13.596Z,1.05
2022-08-21T13:30:23.590Z,1.27
2022-08-21T13:35:30.697Z,1.10
2022-08-21T13:40:40.959Z,1.30
2022-08-21T13:45:49.523Z,1.10
2022-08-21T13:50:55.044Z,1.25
2022-08-21T13:56:00.966Z,1.23
2022-08-21T14:01:06.562Z,1.25
2022-08-21T14:06:17.925Z,1.50
2022-08-21T14:11:21.811Z,1.20
2022-08-21T14:16:27.966Z,1.20
2022-08-21T14:21:36.044Z,1.48
2022-08-21T14:26:47.172Z,1.40
2022-08-21T14:31:56.570Z,1.50
2022-08-21T14:37:01.523Z,1.50
2022-08-21T14:42:05.582Z,1.58
2022-08-21T14:47:10.096Z,1.60
2022-08-21T14:52:14.843Z,1.20
2022-08-21T14:57:18.324Z,1.45
2022-08-21T15:02:21.831Z,1.52
2022-08-21T15:07:26.865Z,1.52
2022-08-21T15:12:31.297Z,1.60
2022-08-21T15:17:34.858Z,1.65
2022-08-21T15:22:39.804Z,1.70
2022-08-21T15:27:51.132Z,1.50
2022-08-21T15:32:54.591Z,1.30
2022-08-21T15:38:00.005Z,1.65
2022-08-21T15:43:05.581Z,1.75
2022-08-21T15:48:08.978Z,1.38
2022-08-21T15:53:14.119Z,1.48
2022-08-21T15:58:21.118Z,1.63
2022-08-21T16:03:24.862Z,1.48
2022-08-21T16:08:29.822Z,1.77
2022-08-21T16:13:38.969Z,1.70
2022-08-21T16:18:42.725Z,1.58
2022-08-21T16:23:47.663Z,1.90
2022-08-21T16:28:54.580Z,1.80
2022-08-21T16:34:24.712Z,1.70
2022-08-21T16:39:29.724Z,2.10
2022-08-21T16:44:35.641Z,1.80
2022-08-21T16:49:40.795Z,1.75
2022-08-21T16:54:45.898Z,1.85
2022-08-21T16:59:49.576Z,2.00
2022-08-21T17:04:53.281Z,2.20
2022-08-21T17:09:58.311Z,1.77
2022-08-21T17:15:06.561Z,1.98
2022-08-21T17:20:11.005Z,2.30
2022-08-21T17:25:16.115Z,2.17
2022-08-21T17:30:20.432Z,2.23
2022-08-21T17:35:24.445Z,2.17
2022-08-21T17:40:29.387Z,2.40
2022-08-21T17:45:32.815Z,2.20
2022-08-21T17:50:40.744Z,2.10
2022-08-21T17:55:45.666Z,2.53
2022-08-21T18:00:49.494Z,2.30
2022-08-21T18:05:57.107Z,2.30
2022-08-21T18:11:02.280Z,2.27
2022-08-21T18:16:06.528Z,1.93
2022-08-21T18:21:10.483Z,2.33
2022-08-21T18:26:21.108Z,2.20
2022-08-21T18:31:24.590Z,2.10
2022-08-21T18:36:29.539Z,2.40
2022-08-21T18:41:35.316Z,2.63
2022-08-21T18:46:39.176Z,2.50
2022-08-21T18:51:45.403Z,2.30
2022-08-21T18:56:54.858Z,2.50
2022-08-21T19:01:59.315Z,2.30
2022-08-21T19:07:04.257Z,2.30
2022-08-21T19:12:14.435Z,2.27
2022-08-21T19:17:18.326Z,2.50
2022-08-21T19:22:22.128Z,2.30
2022-08-21T19:27:29.921Z,2.30
2022-08-21T19:32:33.956Z,2.40
2022-08-21T19:37:38.943Z,2.53
2022-08-21T19:42:45.538Z,2.53
2022-08-21T19:47:51.346Z,3.03
2022-08-21T19:52:55.704Z,2.90
2022-08-21T19:58:01.829Z,3.30
2022-08-21T20:03:05.948Z,2.50
2022-08-21T20:08:20.295Z,2.40
2022-08-21T20:13:26.405Z,2.67
2022-08-21T20:18:30.508Z,3.17
2022-08-21T20:23:34.468Z,2.50
2022-08-21T20:28:39.811Z,2.43
2022-08-21T20:33:43.655Z,2.90
2022-08-21T20:44:14.518Z,2.90
2022-08-21T20:49:22.737Z,3.27
2022-08-21T20:54:33.655Z,2.90
2022-08-21T20:59:47.173Z,2.83
2022-08-21T21:05:02.136Z,3.10
2022-08-21T21:10:17.060Z,2.80
2022-08-21T21:15:29.586Z,2.73
2022-08-21T21:20:39.001Z,2.87
2022-08-21T21:25:53.776Z,2.90
2022-08-21T21:30:59.211Z,2.80
2022-08-21T21:36:13.973Z,2.80
2022-08-21T21:41:28.834Z,3.40
2022-08-21T21:46:48.456Z,2.87
2022-08-21T21:52:02.005Z,3.30
2022-08-21T21:57:17.486Z,3.07
2022-08-21T22:02:35.469Z,3.20
2022-08-21T22:07:49.229Z,2.90
2022-08-21T22:13:12.795Z,2.87
2022-08-21T22:18:21.625Z,2.80
2022-08-21T22:23:29.616Z,2.93
2022-08-21T22:28:37.386Z,3.27
2022-08-21T22:33:42.727Z,3.00
2022-08-21T22:38:46.462Z,2.83
2022-08-21T22:49:34.308Z,3.10
2022-08-21T22:54:42.373Z,2.80
2022-08-21T22:59:55.750Z,2.70
2022-08-21T23:05:06.149Z,2.90
2022-08-21T23:10:22.291Z,3.00
2022-08-21T23:15:34.869Z,3.00
2022-08-21T23:20:55.542Z,2.80
2022-08-21T23:26:18.943Z,2.50
2022-08-21T23:31:32.678Z,2.90
2022-08-21T23:37:23.120Z,3.07
2022-08-21T23:42:45.764Z,2.97
2022-08-21T23:48:00.721Z,3.20
2022-08-21T23:53:20.752Z,2.67
2022-08-21T23:58:33.948Z,2.60
